createdAt,value
2022-10-11T00:01:04.744Z,51.34
2022-10-11T00:03:37.307Z,51.12
2022-10-11T00:06:06.949Z,51.07
2022-10-11T00:08:36.233Z,51.31
2022-10-11T00:11:07.282Z,51.47
2022-10-11T00:13:36.148Z,51.54
2022-10-11T00:16:10.214Z,51.49
2022-10-11T00:18:39.108Z,51.60
2022-10-11T00:21:12.138Z,51.75
2022-10-11T00:23:41.279Z,51.68
2022-10-11T00:26:12.245Z,51.70
2022-10-11T00:28:41.300Z,51.91
2022-10-11T00:31:13.573Z,52.15
2022-10-11T00:33:42.413Z,52.42
2022-10-11T00:36:13.948Z,52.30
2022-10-11T00:38:42.426Z,52.21
2022-10-11T00:41:11.623Z,52.31
2022-10-11T00:43:41.233Z,52.37
2022-10-11T00:46:18.950Z,52.66
2022-10-11T00:48:57.339Z,52.55
2022-10-11T00:51:38.541Z,52.46
2022-10-11T00:54:11.519Z,52.74
2022-10-11T00:56:40.919Z,52.76
2022-10-11T00:59:14.532Z,52.81
2022-10-11T01:01:43.190Z,53.07
2022-10-11T01:05:17.911Z,53.01
2022-10-11T01:07:45.533Z,53.04
2022-10-11T01:10:15.057Z,53.10
2022-10-11T01:13:28.195Z,53.08
2022-10-11T01:16:08.373Z,53.07
2022-10-11T01:18:55.497Z,54.43
2022-10-11T01:22:04.354Z,54.57
2022-10-11T01:24:57.432Z,53.84
2022-10-11T01:28:14.981Z,53.82
2022-10-11T01:30:44.169Z,54.74
2022-10-11T01:33:30.431Z,54.28
2022-10-11T01:36:27.929Z,54.03
2022-10-11T01:39:12.211Z,54.53
2022-10-11T01:41:47.181Z,55.30
2022-10-11T01:44:16.635Z,54.97
2022-10-11T01:46:45.093Z,54.87
2022-10-11T01:49:13.706Z,55.13
2022-10-11T01:51:54.375Z,55.18
2022-10-11T01:55:07.572Z,55.66
2022-10-11T01:58:02.321Z,56.65
2022-10-11T02:01:05.508Z,56.35
2022-10-11T02:03:49.540Z,56.22
2022-10-11T02:06:30.455Z,56.22
2022-10-11T02:09:21.209Z,55.97
2022-10-11T02:11:49.646Z,55.38
2022-10-11T02:14:23.468Z,55.17
2022-10-11T02:17:04.175Z,55.14
2022-10-11T02:19:38.892Z,57.56
2022-10-11T02:22:14.445Z,56.43
2022-10-11T02:24:49.394Z,56.22
2022-10-11T02:27:22.213Z,56.54
2022-10-11T02:29:54.034Z,55.99
2022-10-11T02:32:24.777Z,56.53
2022-10-11T02:34:56.075Z,55.79
2022-10-11T02:37:36.508Z,55.46
2022-10-11T02:40:25.914Z,55.40
2022-10-11T02:42:59.852Z,55.42
2022-10-11T02:45:50.161Z,55.24
2022-10-11T02:48:19.543Z,55.32
2022-10-11T02:50:47.931Z,56.07
2022-10-11T02:53:16.370Z,55.63
2022-10-11T02:55:45.278Z,55.38
2022-10-11T02:58:13.769Z,56.17
2022-10-11T03:00:42.273Z,56.40
2022-10-11T03:03:10.828Z,56.21
2022-10-11T03:05:42.133Z,56.00
2022-10-11T03:08:12.837Z,55.76
2022-10-11T03:10:41.955Z,55.84
2022-10-11T03:13:12.819Z,56.74
2022-10-11T03:15:43.371Z,56.87
2022-10-11T03:18:11.743Z,56.71
2022-10-11T03:20:40.195Z,57.57
2022-10-11T03:23:08.627Z,56.84
2022-10-11T03:25:37.143Z,56.70
2022-10-11T03:28:05.957Z,56.55
2022-10-11T03:30:34.448Z,56.40
2022-10-11T03:33:02.895Z,56.43
2022-10-11T03:35:31.377Z,56.50
2022-10-11T03:37:59.916Z,56.28
2022-10-11T03:40:28.413Z,56.53
2022-10-11T03:42:57.046Z,56.57
2022-10-11T03:45:25.576Z,56.69
2022-10-11T03:47:54.075Z,56.84
2022-10-11T03:50:22.727Z,56.84
2022-10-11T03:52:51.339Z,57.14
2022-10-11T03:55:20.213Z,56.83
2022-10-11T03:57:48.748Z,56.85
2022-10-11T04:00:17.682Z,57.55
2022-10-11T04:02:46.261Z,57.71
2022-10-11T04:05:14.879Z,57.97
2022-10-11T04:07:43.390Z,58.11
2022-10-11T04:10:11.818Z,57.82
2022-10-11T04:12:40.205Z,58.58
2022-10-11T04:15:08.929Z,59.50
2022-10-11T04:17:37.405Z,59.59
2022-10-11T04:20:07.483Z,59.67
2022-10-11T04:22:36.165Z,59.64
2022-10-11T04:25:05.979Z,60.90
2022-10-11T04:27:34.911Z,61.01
2022-10-11T04:30:04.459Z,61.38
2022-10-11T04:32:33.167Z,61.11
2022-10-11T04:35:01.794Z,61.10
2022-10-11T04:37:30.127Z,61.31
2022-10-11T04:39:58.746Z,60.62
2022-10-11T04:42:27.355Z,61.19
2022-10-11T04:44:55.949Z,61.23
2022-10-11T04:47:24.338Z,61.48
2022-10-11T04:49:52.822Z,61.30
2022-10-11T04:52:25.574Z,60.91
2022-10-11T04:54:54.588Z,60.96
2022-10-11T04:57:23.131Z,61.35
2022-10-11T04:59:51.664Z,61.04
2022-10-11T05:02:20.169Z,60.95
2022-10-11T05:04:49.044Z,60.66
2022-10-11T05:07:17.842Z,60.57
2022-10-11T05:09:46.354Z,60.37
2022-10-11T05:12:14.821Z,59.98
2022-10-11T05:14:43.362Z,59.57
2022-10-11T05:17:11.954Z,59.25
2022-10-11T05:19:40.313Z,59.07
2022-10-11T05:22:09.299Z,58.87
2022-10-11T05:24:37.995Z,58.86
2022-10-11T05:27:06.449Z,58.78
2022-10-11T05:29:34.888Z,58.70
2022-10-11T05:32:03.398Z,58.48
2022-10-11T05:34:31.793Z,58.23
2022-10-11T05:37:03.468Z,58.20
2022-10-11T05:39:32.622Z,58.22
2022-10-11T05:42:01.165Z,58.05
2022-10-11T05:44:29.812Z,58.29
2022-10-11T05:46:58.475Z,58.48
2022-10-11T05:49:27.002Z,58.55
2022-10-11T05:51:55.555Z,58.79
2022-10-11T05:54:24.056Z,58.63
2022-10-11T05:56:52.520Z,58.42
2022-10-11T05:59:21.077Z,58.89
2022-10-11T06:01:49.726Z,59.33
2022-10-11T06:04:19.273Z,59.73
2022-10-11T06:06:47.902Z,59.14
2022-10-11T06:09:16.372Z,59.81
2022-10-11T06:11:45.718Z,60.35
2022-10-11T06:14:14.525Z,60.15
2022-10-11T06:16:43.128Z,60.03
2022-10-11T06:19:11.555Z,59.65
2022-10-11T06:21:40.259Z,59.67
2022-10-11T06:24:09.670Z,59.95
2022-10-11T06:26:38.502Z,59.81
2022-10-11T06:29:07.233Z,59.69
2022-10-11T06:31:36.296Z,59.43
2022-10-11T06:34:04.893Z,58.99
2022-10-11T06:36:33.585Z,59.26
2022-10-11T06:39:02.509Z,59.37
2022-10-11T06:41:31.417Z,59.18
2022-10-11T06:44:00.101Z,59.11
2022-10-11T06:46:28.868Z,58.71
2022-10-11T06:48:57.359Z,58.81
2022-10-11T06:51:26.422Z,58.47
2022-10-11T06:53:58.026Z,58.48
2022-10-11T06:56:28.488Z,58.15
2022-10-11T06:58:59.027Z,57.80
2022-10-11T07:01:28.311Z,57.43
2022-10-11T07:03:59.117Z,57.00
2022-10-11T07:06:29.915Z,56.73
2022-10-11T07:09:00.714Z,56.63
2022-10-11T07:11:29.839Z,56.34
2022-10-11T07:14:04.706Z,56.15
2022-10-11T07:16:35.789Z,56.19
2022-10-11T07:19:06.796Z,56.13
2022-10-11T07:21:36.422Z,56.04
2022-10-11T07:24:05.313Z,55.70
2022-10-11T07:26:37.892Z,55.67
2022-10-11T07:29:09.480Z,55.51
2022-10-11T07:31:40.799Z,55.62
2022-10-11T07:34:10.174Z,55.71
2022-10-11T07:36:39.017Z,55.33
2022-10-11T07:39:08.512Z,55.31
2022-10-11T07:41:43.124Z,55.41
2022-10-11T07:44:14.956Z,55.24
2022-10-11T07:46:43.386Z,55.05
2022-10-11T07:49:11.839Z,54.98
2022-10-11T07:51:40.311Z,54.74
2022-10-11T07:54:09.146Z,53.81
2022-10-11T07:56:38.391Z,53.51
2022-10-11T07:59:08.259Z,53.30
2022-10-11T08:01:36.745Z,53.00
2022-10-11T08:04:05.452Z,52.94
2022-10-11T08:06:33.924Z,53.27
2022-10-11T08:09:03.173Z,53.46
2022-10-11T08:11:34.592Z,53.16
2022-10-11T08:14:08.968Z,52.77
2022-10-11T08:16:41.150Z,52.66
2022-10-11T08:19:11.278Z,52.01
2022-10-11T08:21:39.907Z,51.38
2022-10-11T08:24:08.750Z,51.75
2022-10-11T08:26:37.424Z,50.69
2022-10-11T08:29:06.420Z,50.10
2022-10-11T08:31:35.329Z,50.08
2022-10-11T08:34:04.150Z,50.41
2022-10-11T08:36:33.581Z,48.91
2022-10-11T08:39:03.648Z,49.14
2022-10-11T08:41:53.314Z,48.69
2022-10-11T08:44:27.616Z,48.47
2022-10-11T08:47:05.209Z,46.86
2022-10-11T08:49:34.833Z,46.19
2022-10-11T08:52:11.843Z,45.99
2022-10-11T08:54:56.328Z,46.73
2022-10-11T08:57:27.988Z,46.56
2022-10-11T08:59:59.518Z,47.08
2022-10-11T09:03:08.906Z,46.56
2022-10-11T09:06:26.899Z,45.44
2022-10-11T09:09:13.890Z,45.53
2022-10-11T09:12:00.213Z,44.84
2022-10-11T09:14:35.163Z,43.43
2022-10-11T09:17:15.884Z,43.38
2022-10-11T09:20:10.195Z,43.10
2022-10-11T09:22:59.228Z,42.76
2022-10-11T09:25:36.751Z,42.84
2022-10-11T09:28:29.515Z,39.81
2022-10-11T09:30:59.288Z,41.02
2022-10-11T09:33:39.197Z,41.22
2022-10-11T09:36:29.231Z,39.23
2022-10-11T09:39:28.599Z,39.78
2022-10-11T09:42:07.995Z,38.43
2022-10-11T09:44:41.874Z,36.27
2022-10-11T09:47:20.306Z,37.07
2022-10-11T09:49:58.416Z,36.78
2022-10-11T09:52:27.406Z,37.57
2022-10-11T09:55:01.352Z,37.93
2022-10-11T09:57:34.162Z,37.43
2022-10-11T10:00:26.263Z,36.97
2022-10-11T10:02:58.358Z,37.26
2022-10-11T10:05:38.691Z,37.80
2022-10-11T10:08:27.291Z,37.88
2022-10-11T10:11:01.835Z,37.13
2022-10-11T10:13:57.059Z,35.80
2022-10-11T10:16:30.445Z,34.67
2022-10-11T10:19:01.073Z,35.18
2022-10-11T10:21:44.434Z,35.02
2022-10-11T10:24:28.038Z,35.44
2022-10-11T10:27:17.174Z,34.54
2022-10-11T10:30:13.460Z,33.68
2022-10-11T10:33:01.248Z,33.66
2022-10-11T10:35:32.859Z,34.14
2022-10-11T10:38:25.505Z,34.29
2022-10-11T10:41:13.139Z,33.46
2022-10-11T10:43:43.782Z,34.05
2022-10-11T10:46:25.880Z,33.84
2022-10-11T10:52:20.107Z,34.11
2022-10-11T10:55:15.388Z,34.14
2022-10-11T10:57:52.772Z,34.13
2022-10-11T11:00:23.746Z,33.46
2022-10-11T11:03:05.970Z,33.35
2022-10-11T11:06:04.725Z,34.11
2022-10-11T11:08:55.243Z,34.25
2022-10-11T11:11:38.714Z,33.88
2022-10-11T11:14:23.425Z,34.16
2022-10-11T11:17:24.264Z,34.45
2022-10-11T11:20:19.974Z,34.62
2022-10-11T11:23:17.933Z,34.84
2022-10-11T11:25:55.306Z,35.05
2022-10-11T11:28:31.885Z,35.37
2022-10-11T11:31:29.951Z,34.93
2022-10-11T11:34:20.361Z,34.79
2022-10-11T11:37:17.287Z,34.40
2022-10-11T11:39:52.646Z,33.83
2022-10-11T11:42:27.879Z,34.41
2022-10-11T11:44:57.303Z,34.81
2022-10-11T11:47:31.494Z,34.36
2022-10-11T11:50:19.380Z,34.56
2022-10-11T11:52:58.319Z,34.05
2022-10-11T11:55:57.199Z,34.12
2022-10-11T11:59:03.363Z,34.01
2022-10-11T12:01:49.369Z,33.85
2022-10-11T12:04:29.798Z,34.09
2022-10-11T12:07:16.843Z,34.11
2022-10-11T12:09:50.906Z,33.91
2022-10-11T12:12:37.693Z,34.41
2022-10-11T12:15:09.265Z,34.13
2022-10-11T12:17:58.648Z,34.67
2022-10-11T12:20:33.030Z,34.55
2022-10-11T12:23:30.455Z,34.39
2022-10-11T12:26:29.183Z,34.04
2022-10-11T12:29:06.838Z,33.68
2022-10-11T12:31:37.098Z,34.22
2022-10-11T12:34:34.065Z,34.77
2022-10-11T12:37:17.844Z,34.93
2022-10-11T12:39:57.165Z,34.86
2022-10-11T12:42:34.428Z,34.44
2022-10-11T12:45:14.816Z,34.70
2022-10-11T12:48:01.183Z,34.77
2022-10-11T12:50:41.816Z,35.11
2022-10-11T12:53:13.265Z,35.44
2022-10-11T12:56:02.193Z,35.17
2022-10-11T12:58:44.243Z,34.89
2022-10-11T13:01:22.855Z,35.11
2022-10-11T13:03:59.538Z,34.93
2022-10-11T13:06:45.508Z,34.70
2022-10-11T13:09:26.289Z,35.20
2022-10-11T13:12:00.304Z,35.29
2022-10-11T13:14:31.294Z,35.52
2022-10-11T13:17:02.624Z,35.48
2022-10-11T13:19:34.385Z,35.50
2022-10-11T13:22:20.091Z,34.92
2022-10-11T13:24:48.523Z,35.16
2022-10-11T13:27:24.136Z,35.49
2022-10-11T13:29:56.075Z,35.26
2022-10-11T13:32:27.626Z,35.16
2022-10-11T13:35:01.878Z,35.64
2022-10-11T13:37:35.401Z,35.84
2022-10-11T13:40:04.669Z,35.14
2022-10-11T13:42:33.862Z,35.62
2022-10-11T13:45:02.636Z,36.03
2022-10-11T13:47:32.473Z,35.76
2022-10-11T13:50:09.169Z,35.86
2022-10-11T13:52:58.611Z,36.18
2022-10-11T13:55:47.923Z,36.01
2022-10-11T13:58:36.845Z,36.10
2022-10-11T14:01:16.897Z,36.39
2022-10-11T14:03:55.559Z,36.19
2022-10-11T14:06:25.231Z,36.10
2022-10-11T14:08:58.795Z,35.70
2022-10-11T14:11:37.146Z,36.17
2022-10-11T14:14:33.705Z,35.87
2022-10-11T14:17:17.373Z,36.20
2022-10-11T14:19:47.698Z,36.09
2022-10-11T14:22:18.248Z,36.34
2022-10-11T14:24:49.951Z,36.24
2022-10-11T14:27:22.863Z,36.49
2022-10-11T14:30:06.372Z,36.62
2022-10-11T14:32:42.426Z,36.67
2022-10-11T14:35:37.203Z,36.74
2022-10-11T14:38:05.897Z,36.68
2022-10-11T14:40:34.558Z,36.65
2022-10-11T14:43:03.131Z,36.74
2022-10-11T14:45:31.516Z,36.76
2022-10-11T14:47:59.977Z,36.88
2022-10-11T14:50:39.390Z,36.97
2022-10-11T14:53:12.469Z,37.20
2022-10-11T14:55:41.879Z,37.22
2022-10-11T14:58:13.933Z,37.51
2022-10-11T15:00:42.822Z,37.38
2022-10-11T15:03:11.760Z,37.28
2022-10-11T15:05:40.661Z,37.47
2022-10-11T15:08:09.216Z,37.62
2022-10-11T15:10:40.262Z,37.92
2022-10-11T15:13:09.147Z,37.96
2022-10-11T15:15:41.263Z,38.16
2022-10-11T15:18:13.868Z,37.96
2022-10-11T15:20:45.377Z,38.12
2022-10-11T15:23:14.517Z,38.42
2022-10-11T15:25:43.195Z,38.35
2022-10-11T15:28:27.714Z,38.34
2022-10-11T15:30:56.612Z,38.70
2022-10-11T15:33:26.146Z,38.80
2022-10-11T15:35:54.552Z,38.71
2022-10-11T15:38:25.533Z,38.51
2022-10-11T15:40:54.989Z,38.58
2022-10-11T15:43:24.936Z,38.37
2022-10-11T15:45:55.894Z,38.40
2022-10-11T15:48:26.568Z,38.30
2022-10-11T15:50:55.789Z,38.10
2022-10-11T15:53:31.530Z,38.10
2022-10-11T15:56:04.439Z,38.41
2022-10-11T15:58:40.210Z,38.37
2022-10-11T16:01:18.174Z,38.58
2022-10-11T16:03:48.426Z,38.55
2022-10-11T16:06:18.815Z,38.50
2022-10-11T16:08:48.105Z,38.53
2022-10-11T16:11:16.605Z,38.59
2022-10-11T16:13:45.473Z,38.71
2022-10-11T16:16:14.465Z,38.73
2022-10-11T16:18:43.027Z,38.57
2022-10-11T16:21:15.845Z,38.73
2022-10-11T16:23:44.313Z,38.70
2022-10-11T16:26:14.982Z,38.86
2022-10-11T16:28:43.975Z,38.86
2022-10-11T16:31:18.379Z,38.93
2022-10-11T16:33:47.344Z,39.03
2022-10-11T16:36:32.164Z,39.23
2022-10-11T16:39:02.692Z,39.53
2022-10-11T16:41:31.116Z,39.83
2022-10-11T16:44:00.190Z,40.73
2022-10-11T16:46:28.903Z,40.90
2022-10-11T16:48:57.639Z,40.83
2022-10-11T16:51:26.334Z,40.72
2022-10-11T16:53:54.843Z,40.79
2022-10-11T16:56:25.265Z,40.90
2022-10-11T16:58:54.608Z,40.93
2022-10-11T17:01:23.083Z,40.84
2022-10-11T17:03:52.468Z,40.69
2022-10-11T17:06:21.019Z,40.62
2022-10-11T17:08:49.582Z,40.81
2022-10-11T17:11:18.622Z,40.75
2022-10-11T17:13:47.091Z,40.98
2022-10-11T17:16:16.584Z,40.92
2022-10-11T17:18:45.463Z,40.89
2022-10-11T17:21:16.668Z,40.87
2022-10-11T17:23:45.148Z,40.96
2022-10-11T17:26:23.623Z,41.18
2022-10-11T17:28:54.376Z,41.65
2022-10-11T17:31:23.617Z,41.64
2022-10-11T17:33:53.404Z,41.55
2022-10-11T17:36:34.894Z,41.62
2022-10-11T17:39:08.263Z,41.61
2022-10-11T17:41:37.267Z,41.74
2022-10-11T17:44:05.862Z,41.60
2022-10-11T17:46:34.904Z,41.69
2022-10-11T17:49:06.126Z,41.80
2022-10-11T17:51:36.939Z,42.02
2022-10-11T17:54:06.522Z,41.90
2022-10-11T17:56:37.880Z,41.87
2022-10-11T17:59:08.059Z,41.87
2022-10-11T18:01:36.730Z,41.93
2022-10-11T18:04:06.353Z,42.16
2022-10-11T18:06:39.857Z,42.05
2022-10-11T18:09:08.410Z,42.21
2022-10-11T18:11:36.956Z,42.28
2022-10-11T18:14:05.728Z,42.55
2022-10-11T18:16:35.830Z,42.37
2022-10-11T18:19:07.127Z,42.74
2022-10-11T18:21:37.850Z,42.77
2022-10-11T18:24:11.185Z,42.67
2022-10-11T18:26:40.123Z,42.78
2022-10-11T18:29:08.945Z,42.76
2022-10-11T18:31:37.487Z,42.98
2022-10-11T18:34:08.616Z,43.09
2022-10-11T18:36:38.178Z,43.16
2022-10-11T18:39:08.895Z,43.20
2022-10-11T18:41:39.229Z,43.41
2022-10-11T18:44:09.381Z,43.35
2022-10-11T18:46:37.893Z,43.17
2022-10-11T18:49:06.724Z,43.33
2022-10-11T18:51:41.066Z,43.28
2022-10-11T18:54:13.932Z,43.19
2022-10-11T18:56:45.932Z,43.32
2022-10-11T18:59:14.422Z,43.32
2022-10-11T19:01:44.991Z,43.28
2022-10-11T19:04:16.157Z,43.18
2022-10-11T19:06:50.736Z,43.31
2022-10-11T19:09:26.681Z,43.40
2022-10-11T19:11:56.920Z,43.31
2022-10-11T19:14:28.898Z,43.56
2022-10-11T19:16:58.170Z,43.84
2022-10-11T19:19:28.988Z,43.91
2022-10-11T19:21:57.611Z,44.18
2022-10-11T19:24:28.541Z,44.30
2022-10-11T19:27:02.362Z,44.56
2022-10-11T19:29:32.655Z,44.39
2022-10-11T19:32:03.793Z,44.56
2022-10-11T19:34:33.003Z,45.08
2022-10-11T19:37:03.493Z,44.94
2022-10-11T19:39:32.623Z,45.03
2022-10-11T19:42:01.509Z,45.13
2022-10-11T19:44:33.311Z,45.32
2022-10-11T19:47:05.392Z,45.33
2022-10-11T19:49:34.194Z,45.57
2022-10-11T19:52:02.760Z,45.43
2022-10-11T19:54:32.268Z,45.74
2022-10-11T19:57:00.744Z,46.04
2022-10-11T19:59:29.475Z,46.15
2022-10-11T20:01:58.093Z,46.16
2022-10-11T20:04:51.150Z,46.39
2022-10-11T20:07:15.521Z,46.80
2022-10-11T20:09:44.216Z,46.64
2022-10-11T20:12:12.714Z,46.63
2022-10-11T20:14:41.234Z,46.88
2022-10-11T20:17:09.747Z,47.11
2022-10-11T20:19:38.270Z,47.27
2022-10-11T20:22:06.817Z,47.33
2022-10-11T20:24:35.424Z,47.36
2022-10-11T20:27:05.428Z,47.25
2022-10-11T20:29:34.593Z,47.33
2022-10-11T20:32:03.359Z,47.52
2022-10-11T20:34:31.988Z,47.50
2022-10-11T20:37:00.518Z,47.68
2022-10-11T20:39:28.998Z,47.85
2022-10-11T20:41:57.366Z,48.12
2022-10-11T20:44:25.871Z,48.59
2022-10-11T20:46:54.259Z,48.55
2022-10-11T20:49:22.794Z,48.43
2022-10-11T20:51:51.412Z,48.25
2022-10-11T20:54:19.884Z,48.66
2022-10-11T20:56:48.443Z,48.61
2022-10-11T20:59:16.824Z,48.59
2022-10-11T21:01:45.453Z,48.78
2022-10-11T21:04:20.275Z,49.18
2022-10-11T21:06:49.240Z,49.19
2022-10-11T21:09:17.806Z,49.41
2022-10-11T21:11:46.799Z,49.59
2022-10-11T21:14:15.416Z,49.68
2022-10-11T21:16:43.960Z,49.83
2022-10-11T21:19:16.283Z,49.77
2022-10-11T21:21:52.559Z,49.92
2022-10-11T21:24:21.825Z,50.52
2022-10-11T21:26:50.382Z,50.15
2022-10-11T21:29:19.060Z,50.23
2022-10-11T21:31:47.382Z,50.45
2022-10-11T21:34:15.907Z,50.45
2022-10-11T21:36:44.378Z,50.26
2022-10-11T21:39:12.868Z,50.50
2022-10-11T21:41:42.477Z,50.47
2022-10-11T21:44:10.977Z,50.51
2022-10-11T21:47:05.350Z,50.99
2022-10-11T21:49:28.104Z,51.02
2022-10-11T21:51:56.744Z,52.08
2022-10-11T21:54:25.839Z,51.71
2022-10-11T21:56:54.597Z,51.48
2022-10-11T21:59:23.102Z,51.83
2022-10-11T22:01:51.670Z,52.06
2022-10-11T22:04:20.048Z,52.00
2022-10-11T22:06:48.624Z,52.45
2022-10-11T22:09:17.161Z,52.19
2022-10-11T22:11:45.756Z,52.29
2022-10-11T22:14:14.891Z,52.40
2022-10-11T22:16:43.381Z,52.24
2022-10-11T22:19:11.809Z,52.06
2022-10-11T22:21:44.768Z,52.60
2022-10-11T22:24:13.683Z,52.18
2022-10-11T22:26:42.248Z,52.81
2022-10-11T22:29:10.627Z,52.52
2022-10-11T22:31:39.131Z,52.53
2022-10-11T22:34:07.679Z,52.61
2022-10-11T22:36:36.149Z,52.66
2022-10-11T22:39:08.170Z,52.55
2022-10-11T22:41:37.626Z,52.60
2022-10-11T22:44:06.445Z,52.76
2022-10-11T22:46:34.869Z,52.62
2022-10-11T22:49:03.426Z,53.11
2022-10-11T22:51:31.993Z,52.98
2022-10-11T22:54:00.504Z,53.26
2022-10-11T22:56:28.860Z,53.20
2022-10-11T22:58:59.239Z,52.89
2022-10-11T23:01:27.540Z,52.91
2022-10-11T23:03:56.763Z,52.90
2022-10-11T23:06:25.295Z,52.96
2022-10-11T23:08:53.685Z,52.95
2022-10-11T23:11:22.145Z,52.97
2022-10-11T23:13:50.663Z,53.35
2022-10-11T23:16:19.196Z,53.32
2022-10-11T23:18:47.651Z,53.26
2022-10-11T23:21:16.010Z,53.24
2022-10-11T23:23:44.512Z,53.39
2022-10-11T23:26:15.246Z,53.40
2022-10-11T23:28:44.255Z,53.43
2022-10-11T23:31:16.797Z,53.58
2022-10-11T23:33:46.679Z,53.61
2022-10-11T23:36:20.661Z,53.65
2022-10-11T23:38:53.480Z,53.62
2022-10-11T23:41:26.221Z,53.68
2022-10-11T23:43:55.028Z,53.67
2022-10-11T23:46:23.520Z,53.85
2022-10-11T23:48:51.905Z,53.93
2022-10-11T23:51:20.476Z,53.92
2022-10-11T23:53:48.945Z,54.07
2022-10-11T23:56:17.456Z,54.30
2022-10-11T23:58:45.935Z,54.27
